Time;durP1;ratioP1;P1;durP2;ratioP2;P2;SDS_P1;SDS_P2;PMS_P1;PMS_P2;Temp;Humidity;BMP_temperature;BMP_pressure;BME280_temperature;BME280_humidity;BME280_pressure;Samples;Min_cycle;Max_cycle;Signal;HPM_P1;HPM_P2
2023/06/17 00:02:01;;;;;;;6.55;5.85;;;21.80;67.40;;;;;;5014569;28;20105;-46
2023/06/17 00:04:27;;;;;;;7.65;5.35;;;21.80;67.70;;;;;;5014764;28;20060;-47
2023/06/17 00:06:53;;;;;;;7.43;6.10;;;21.70;67.90;;;;;;5014087;28;20038;-49
2023/06/17 00:09:19;;;;;;;7.15;5.90;;;21.80;67.00;;;;;;5014111;28;20449;-49
2023/06/17 00:11:46;;;;;;;7.78;6.25;;;21.70;67.00;;;;;;5014152;28;20033;-46
2023/06/17 00:14:11;;;;;;;7.55;6.25;;;21.80;67.10;;;;;;5013968;28;20049;-47
2023/06/17 00:16:43;;;;;;;8.02;6.13;;;21.70;67.10;;;;;;5014196;28;20041;-49
2023/06/17 00:19:15;;;;;;;7.57;5.40;;;21.70;67.30;;;;;;5014328;28;20026;-48
2023/06/17 00:21:41;;;;;;;7.68;6.15;;;21.70;66.90;;;;;;5014018;28;20061;-48
2023/06/17 00:24:06;;;;;;;6.25;5.50;;;21.70;66.50;;;;;;5013934;28;20022;-50
2023/06/17 00:26:32;;;;;;;7.15;5.97;;;21.70;66.10;;;;;;5013589;28;20076;-50
2023/06/17 00:28:57;;;;;;;6.78;5.65;;;21.70;65.90;;;;;;5013655;28;20441;-49
2023/06/17 00:31:24;;;;;;;6.15;5.25;;;21.70;65.60;;;;;;5013935;28;20033;-48
2023/06/17 00:33:49;;;;;;;7.68;5.18;;;21.70;65.60;;;;;;5011472;28;20030;-49
2023/06/17 00:36:15;;;;;;;11.98;5.40;;;21.70;65.70;;;;;;5013572;28;20129;-50
2023/06/17 00:38:41;;;;;;;7.55;5.57;;;21.70;64.90;;;;;;5013757;28;20056;-50
2023/06/17 00:41:06;;;;;;;6.25;5.43;;;21.70;64.90;;;;;;5013534;28;20520;-49
2023/06/17 00:43:32;;;;;;;7.30;5.95;;;21.70;65.00;;;;;;5013715;28;20041;-49
2023/06/17 00:45:59;;;;;;;7.85;5.72;;;21.70;65.30;;;;;;5013543;28;20030;-51
2023/06/17 00:48:25;;;;;;;6.93;5.70;;;21.70;65.40;;;;;;5013750;28;20089;-49
2023/06/17 00:50:52;;;;;;;7.15;5.53;;;21.70;65.30;;;;;;5013852;28;20089;-49
2023/06/17 00:53:17;;;;;;;8.15;5.72;;;21.70;65.30;;;;;;5015301;28;20579;-50
2023/06/17 00:55:44;;;;;;;7.25;5.72;;;21.70;65.50;;;;;;5017118;28;20033;-51
2023/06/17 00:58:11;;;;;;;8.05;5.72;;;21.70;65.60;;;;;;5017542;28;20079;-48
2023/06/17 01:00:37;;;;;;;7.07;5.57;;;21.70;65.70;;;;;;5017542;28;20021;-49
2023/06/17 01:03:03;;;;;;;9.30;5.28;;;21.70;65.60;;;;;;5017392;28;20093;-50
2023/06/17 01:05:29;;;;;;;7.57;5.78;;;21.70;65.70;;;;;;5017552;28;20470;-46
2023/06/17 01:08:05;;;;;;;6.88;5.38;;;21.70;66.50;;;;;;5017475;28;20547;-48
2023/06/17 01:10:43;;;;;;;7.15;5.93;;;21.70;66.00;;;;;;5017643;28;20037;-50
2023/06/17 01:13:12;;;;;;;8.35;5.68;;;21.70;66.20;;;;;;5017250;28;20080;-48
2023/06/17 01:15:38;;;;;;;8.43;5.90;;;21.60;66.60;;;;;;5017114;28;20057;-50
2023/06/17 01:18:05;;;;;;;7.53;5.63;;;21.60;66.90;;;;;;5016040;28;20049;-47
2023/06/17 01:20:35;;;;;;;8.63;5.90;;;21.60;67.20;;;;;;5017007;28;20084;-48
2023/06/17 01:23:03;;;;;;;7.32;5.85;;;21.60;67.50;;;;;;5017292;28;20026;-50
2023/06/17 01:25:30;;;;;;;8.13;6.28;;;21.60;67.30;;;;;;5016802;28;20092;-47
2023/06/17 01:28:03;;;;;;;7.00;5.82;;;21.60;67.40;;;;;;5017130;28;20053;-47
2023/06/17 01:30:29;;;;;;;9.70;6.43;;;21.60;67.40;;;;;;5017206;28;20034;-47
2023/06/17 01:33:00;;;;;;;10.15;6.47;;;21.50;67.50;;;;;;5016762;28;20029;-45
2023/06/17 01:35:32;;;;;;;7.32;6.43;;;21.60;67.80;;;;;;5016945;28;20028;-49
2023/06/17 01:38:34;;;;;;;8.57;5.70;;;21.50;67.60;;;;;;5016823;28;20033;-48
2023/06/17 01:41:03;;;;;;;8.27;6.28;;;21.50;67.50;;;;;;5015439;28;20038;-48
2023/06/17 01:43:31;;;;;;;7.38;6.15;;;21.40;67.90;;;;;;5016685;28;20116;-48
2023/06/17 01:45:59;;;;;;;7.25;5.75;;;21.40;68.00;;;;;;5016410;28;20030;-48
2023/06/17 01:48:25;;;;;;;8.77;6.45;;;21.40;68.10;;;;;;5016582;28;20539;-47
2023/06/17 01:50:50;;;;;;;8.77;6.28;;;21.40;68.10;;;;;;5016517;28;20033;-48
2023/06/17 01:53:16;;;;;;;10.52;6.60;;;21.30;68.00;;;;;;5016264;28;20053;-48
2023/06/17 01:55:41;;;;;;;9.45;6.72;;;21.30;68.00;;;;;;5016428;28;20030;-50
2023/06/17 01:58:07;;;;;;;8.65;6.93;;;21.30;68.20;;;;;;5016305;28;20064;-50
2023/06/17 02:00:33;;;;;;;9.38;7.28;;;21.30;68.30;;;;;;5016158;28;20438;-52
2023/06/17 02:02:58;;;;;;;10.48;6.85;;;21.30;68.20;;;;;;5016139;28;20030;-49
2023/06/17 02:05:24;;;;;;;9.02;6.32;;;21.30;68.20;;;;;;5015199;28;20497;-49
2023/06/17 02:07:52;;;;;;;7.97;6.72;;;21.20;67.90;;;;;;5015893;28;20026;-47
2023/06/17 02:10:18;;;;;;;9.25;6.45;;;21.30;67.80;;;;;;5016239;28;20084;-47
2023/06/17 02:12:44;;;;;;;8.90;6.65;;;21.30;67.70;;;;;;5015883;28;20022;-48
2023/06/17 02:15:10;;;;;;;9.07;6.80;;;21.30;67.80;;;;;;5015835;28;20065;-51
2023/06/17 02:17:36;;;;;;;12.13;6.88;;;21.30;68.00;;;;;;5016006;28;20026;-50
2023/06/17 02:20:06;;;;;;;9.60;7.00;;;21.30;67.70;;;;;;5016083;28;20037;-47
2023/06/17 02:22:32;;;;;;;7.77;6.47;;;21.30;67.00;;;;;;5016027;28;20034;-49
2023/06/17 02:24:58;;;;;;;8.75;6.55;;;21.30;65.80;;;;;;5015785;28;20440;-48
2023/06/17 02:27:23;;;;;;;9.35;7.13;;;21.40;65.70;;;;;;5016032;28;20113;-47
2023/06/17 02:29:49;;;;;;;8.52;6.88;;;21.40;65.80;;;;;;5015334;28;20034;-50
2023/06/17 02:32:16;;;;;;;7.78;6.88;;;21.50;65.50;;;;;;5016435;28;20486;-50
2023/06/17 02:34:42;;;;;;;8.20;6.50;;;21.50;65.30;;;;;;5013256;28;20029;-48
2023/06/17 02:37:08;;;;;;;10.48;6.93;;;21.50;64.10;;;;;;5015457;28;20030;-50
2023/06/17 02:39:34;;;;;;;11.50;6.90;;;21.60;64.40;;;;;;5015709;28;20056;-51
2023/06/17 02:42:00;;;;;;;8.50;6.20;;;21.60;64.50;;;;;;5015655;28;20437;-50
2023/06/17 02:44:25;;;;;;;7.43;6.20;;;21.70;63.90;;;;;;5015203;28;20076;-47
2023/06/17 02:46:51;;;;;;;7.20;6.03;;;21.70;63.20;;;;;;5015417;28;20397;-46
2023/06/17 02:49:17;;;;;;;8.52;6.95;;;21.80;63.10;;;;;;5015809;28;20041;-48
2023/06/17 02:51:42;;;;;;;8.23;6.82;;;21.80;63.50;;;;;;5015379;28;20041;-49
2023/06/17 02:54:08;;;;;;;9.25;6.60;;;21.80;63.50;;;;;;5015291;28;20036;-49
2023/06/17 02:56:33;;;;;;;10.38;6.78;;;21.90;63.20;;;;;;5014650;28;20481;-49
2023/06/17 02:59:00;;;;;;;8.07;6.53;;;21.90;63.20;;;;;;5015059;28;20033;-51
2023/06/17 03:01:26;;;;;;;9.02;6.00;;;21.90;62.60;;;;;;5015359;28;20490;-50
2023/06/17 03:03:54;;;;;;;8.68;6.78;;;22.00;62.90;;;;;;5015154;28;20034;-47
2023/06/17 03:06:21;;;;;;;10.20;6.63;;;22.00;63.20;;;;;;5015751;28;20080;-49
2023/06/17 03:08:47;;;;;;;7.82;6.63;;;22.00;63.40;;;;;;5015644;28;20034;-48
2023/06/17 03:11:12;;;;;;;9.82;7.00;;;22.10;63.30;;;;;;5015211;28;20397;-48
2023/06/17 03:13:38;;;;;;;8.50;7.25;;;22.10;63.40;;;;;;5014964;28;20053;-47
2023/06/17 03:16:05;;;;;;;12.18;6.80;;;22.20;63.20;;;;;;5014804;28;20048;-47
2023/06/17 03:18:31;;;;;;;10.60;6.60;;;22.20;63.20;;;;;;5014946;28;20033;-50
2023/06/17 03:20:56;;;;;;;8.88;6.82;;;22.30;63.90;;;;;;5014704;28;20034;-46
2023/06/17 03:23:23;;;;;;;8.73;6.60;;;22.40;63.80;;;;;;5014950;28;20405;-50
2023/06/17 03:25:49;;;;;;;8.85;7.05;;;22.40;63.80;;;;;;5014537;28;20157;-48
2023/06/17 03:28:15;;;;;;;7.38;6.00;;;22.50;63.40;;;;;;5014335;28;20045;-50
2023/06/17 03:30:41;;;;;;;9.80;6.82;;;22.50;63.00;;;;;;5014820;28;20030;-50
2023/06/17 03:33:09;;;;;;;7.95;6.53;;;22.60;63.20;;;;;;5014695;28;20079;-49
2023/06/17 03:35:35;;;;;;;8.40;6.50;;;22.80;63.60;;;;;;5014595;28;20029;-48
2023/06/17 03:38:01;;;;;;;8.80;6.00;;;23.10;63.50;;;;;;5015240;28;20022;-49
2023/06/17 03:40:27;;;;;;;8.65;6.88;;;23.50;63.10;;;;;;5014631;28;20025;-49
2023/06/17 03:42:54;;;;;;;8.10;6.38;;;24.00;61.80;;;;;;5012778;28;20105;-48
2023/06/17 03:45:20;;;;;;;6.85;6.07;;;24.60;60.90;;;;;;5014071;28;20026;-49
2023/06/17 03:47:46;;;;;;;7.28;5.82;;;25.30;59.60;;;;;;5014148;28;20110;-50
2023/06/17 03:50:12;;;;;;;8.30;5.75;;;26.10;58.90;;;;;;5015152;28;20022;-48
2023/06/17 03:52:38;;;;;;;13.52;6.40;;;27.00;58.30;;;;;;5014680;28;20041;-52
2023/06/17 03:55:04;;;;;;;9.55;6.18;;;27.90;56.40;;;;;;5013457;28;20034;-52
2023/06/17 03:57:29;;;;;;;8.00;5.72;;;28.80;54.60;;;;;;5013847;28;20030;-49
2023/06/17 03:59:55;;;;;;;7.85;5.65;;;29.70;53.50;;;;;;5013998;28;20395;-49
2023/06/17 04:02:21;;;;;;;7.07;6.30;;;30.50;52.80;;;;;;5015092;28;20072;-47
2023/06/17 04:04:46;;;;;;;7.25;5.13;;;31.20;51.20;;;;;;5015601;28;20084;-49
2023/06/17 04:07:12;;;;;;;6.57;5.43;;;31.90;50.50;;;;;;5014667;28;20033;-51
2023/06/17 04:09:37;;;;;;;6.60;4.78;;;32.50;49.80;;;;;;5014435;28;20106;-51
2023/06/17 04:12:03;;;;;;;6.88;5.28;;;33.10;48.90;;;;;;5014589;28;20374;-51
2023/06/17 04:14:29;;;;;;;5.82;5.22;;;33.70;47.40;;;;;;5014060;28;20045;-52
2023/06/17 04:16:56;;;;;;;9.05;5.38;;;34.30;46.70;;;;;;5013862;28;20034;-49
2023/06/17 04:19:23;;;;;;;9.90;5.68;;;34.80;45.90;;;;;;5013795;28;20507;-51
2023/06/17 04:21:49;;;;;;;6.13;5.53;;;35.30;45.00;;;;;;5013590;28;20109;-50
2023/06/17 04:24:15;;;;;;;6.82;5.07;;;35.90;44.50;;;;;;5012346;28;20452;-50
2023/06/17 04:26:44;;;;;;;6.57;5.40;;;36.30;43.80;;;;;;5013059;28;20030;-49
2023/06/17 04:29:10;;;;;;;6.22;5.10;;;36.80;43.20;;;;;;5012417;28;20490;-49
2023/06/17 04:31:40;;;;;;;7.13;5.30;;;37.30;42.90;;;;;;5013250;28;20033;-52
2023/06/17 04:34:07;;;;;;;7.05;5.13;;;37.70;42.50;;;;;;5011623;28;20029;-53
2023/06/17 04:36:32;;;;;;;8.40;5.05;;;38.00;41.60;;;;;;5011918;28;20026;-50
2023/06/17 04:38:58;;;;;;;5.30;4.75;;;38.20;41.60;;;;;;5012412;28;20459;-51
2023/06/17 04:41:26;;;;;;;6.82;5.00;;;38.30;41.50;;;;;;5013372;28;20018;-48
2023/06/17 04:43:53;;;;;;;8.38;4.65;;;38.50;41.40;;;;;;5013079;28;20505;-52
2023/06/17 04:46:19;;;;;;;6.95;5.22;;;38.70;41.00;;;;;;5012574;28;20121;-48
2023/06/17 04:48:45;;;;;;;7.95;4.82;;;38.80;40.80;;;;;;5013344;28;20042;-50
2023/06/17 04:51:12;;;;;;;5.93;4.88;;;39.00;40.60;;;;;;5013317;28;20335;-52
2023/06/17 04:53:38;;;;;;;6.05;4.40;;;39.10;40.40;;;;;;5014579;28;20148;-50
2023/06/17 04:56:06;;;;;;;7.47;5.82;;;39.40;40.10;;;;;;5013945;28;20034;-50
2023/06/17 04:58:35;;;;;;;8.00;5.07;;;39.60;39.80;;;;;;5014550;28;20606;-51
2023/06/17 05:01:00;;;;;;;5.65;4.82;;;39.70;39.40;;;;;;5013850;28;20033;-50
2023/06/17 05:03:26;;;;;;;5.53;4.57;;;39.80;39.10;;;;;;5013981;28;20026;-53
2023/06/17 05:05:53;;;;;;;5.55;4.72;;;40.00;38.80;;;;;;5013893;28;20613;-52
2023/06/17 05:08:19;;;;;;;5.18;4.25;;;40.20;38.80;;;;;;5014147;28;20144;-49
2023/06/17 05:10:45;;;;;;;5.20;4.10;;;40.30;38.80;;;;;;5014275;28;20480;-49
2023/06/17 05:13:10;;;;;;;5.55;4.68;;;40.30;39.00;;;;;;5014565;28;20049;-49
2023/06/17 05:15:36;;;;;;;4.78;4.28;;;40.20;38.90;;;;;;5014240;28;20026;-50
2023/06/17 05:18:01;;;;;;;5.10;4.53;;;40.10;38.90;;;;;;5014605;28;20437;-49
2023/06/17 05:20:27;;;;;;;6.05;3.97;;;40.00;38.60;;;;;;5015626;28;20053;-52
2023/06/17 05:22:53;;;;;;;5.78;4.18;;;39.80;38.40;;;;;;5016076;28;20044;-52
2023/06/17 05:25:18;;;;;;;5.70;4.68;;;39.40;38.40;;;;;;5016498;28;20030;-50
2023/06/17 05:27:44;;;;;;;5.30;4.57;;;38.70;38.50;;;;;;5015624;28;20030;-53
2023/06/17 05:30:10;;;;;;;7.20;4.90;;;38.00;39.00;;;;;;5015964;28;20026;-51
2023/06/17 05:32:35;;;;;;;5.53;4.68;;;37.10;39.50;;;;;;5015597;28;20037;-52
2023/06/17 05:35:01;;;;;;;6.60;5.25;;;36.20;39.90;;;;;;5015628;28;20030;-48
2023/06/17 05:37:27;;;;;;;6.03;4.80;;;35.40;40.70;;;;;;5015939;28;20026;-51
2023/06/17 05:39:52;;;;;;;7.93;5.18;;;34.60;40.80;;;;;;5015793;28;20025;-51
2023/06/17 05:42:18;;;;;;;6.40;5.25;;;33.90;41.50;;;;;;5020133;28;20022;-51
2023/06/17 05:44:44;;;;;;;6.00;5.28;;;33.30;42.00;;;;;;5019741;28;20030;-48
2023/06/17 05:47:09;;;;;;;7.15;4.78;;;32.90;42.70;;;;;;5019565;28;20041;-48
2023/06/17 05:49:35;;;;;;;6.85;5.65;;;32.50;43.30;;;;;;5020229;28;20034;-49
2023/06/17 05:52:01;;;;;;;7.65;5.07;;;32.20;43.70;;;;;;5019012;28;20041;-49
2023/06/17 05:54:26;;;;;;;6.53;5.00;;;31.80;44.50;;;;;;5019170;28;20477;-50
2023/06/17 05:56:52;;;;;;;5.05;4.53;;;31.40;45.10;;;;;;5019663;28;20040;-50
2023/06/17 05:59:17;;;;;;;5.70;4.78;;;31.10;45.70;;;;;;5019085;28;20029;-50
2023/06/17 06:01:43;;;;;;;5.93;4.97;;;30.80;46.40;;;;;;5019398;28;20078;-48
2023/06/17 06:04:09;;;;;;;5.93;4.75;;;30.50;46.70;;;;;;5019690;28;20061;-51
2023/06/17 06:06:34;;;;;;;5.93;5.00;;;30.20;47.00;;;;;;5019111;28;20093;-52
2023/06/17 06:09:00;;;;;;;6.45;5.35;;;30.00;47.30;;;;;;5018393;28;20034;-51
2023/06/17 06:11:26;;;;;;;7.00;5.85;;;29.80;47.60;;;;;;5018188;28;20033;-47
2023/06/17 06:13:52;;;;;;;11.00;5.80;;;29.60;47.90;;;;;;5018341;28;20046;-48
2023/06/17 06:16:18;;;;;;;6.97;5.57;;;29.40;48.00;;;;;;5018216;28;20096;-48
2023/06/17 06:18:43;;;;;;;6.07;5.20;;;29.30;48.20;;;;;;5018909;28;20515;-51
2023/06/17 06:21:10;;;;;;;9.50;5.35;;;29.20;48.50;;;;;;5018539;28;20049;-51
2023/06/17 06:23:37;;;;;;;7.05;5.60;;;29.10;48.60;;;;;;5018759;28;20036;-51
2023/06/17 06:26:02;;;;;;;6.25;5.35;;;29.00;48.80;;;;;;5019347;28;20022;-48
2023/06/17 06:28:28;;;;;;;7.50;5.50;;;29.00;48.90;;;;;;5018822;28;20033;-50
2023/06/17 06:30:54;;;;;;;6.15;4.88;;;28.80;48.60;;;;;;5018993;28;20082;-48
2023/06/17 06:33:21;;;;;;;5.88;5.28;;;28.70;49.00;;;;;;5018093;28;20528;-49
2023/06/17 06:35:47;;;;;;;6.07;5.28;;;28.60;49.30;;;;;;5015228;28;20436;-49
2023/06/17 06:38:13;;;;;;;8.68;5.72;;;28.50;49.40;;;;;;5016790;28;20476;-51
2023/06/17 06:40:40;;;;;;;7.20;5.50;;;28.40;49.50;;;;;;5017349;28;20107;-52
2023/06/17 06:43:05;;;;;;;7.45;6.07;;;28.30;50.00;;;;;;5018422;28;20093;-51
2023/06/17 06:45:31;;;;;;;6.45;5.68;;;28.30;50.20;;;;;;5018469;28;20054;-50
2023/06/17 06:47:57;;;;;;;6.63;5.45;;;28.20;50.60;;;;;;5018900;28;20152;-51
2023/06/17 06:50:23;;;;;;;7.47;5.50;;;28.10;50.50;;;;;;5018458;28;20018;-50
2023/06/17 06:52:49;;;;;;;6.90;5.90;;;28.10;50.70;;;;;;5019358;28;20022;-48
2023/06/17 06:55:15;;;;;;;6.90;5.63;;;28.10;51.10;;;;;;5018388;28;20025;-50
2023/06/17 06:57:41;;;;;;;9.23;5.80;;;28.00;51.70;;;;;;5018406;28;20088;-49
2023/06/17 07:00:11;;;;;;;7.07;5.38;;;28.00;51.10;;;;;;5017873;28;20021;-50
2023/06/17 07:02:37;;;;;;;11.90;6.05;;;28.00;51.70;;;;;;5019195;28;20503;-51
2023/06/17 07:05:06;;;;;;;6.60;5.90;;;27.90;51.90;;;;;;5018827;28;20022;-50
2023/06/17 07:07:31;;;;;;;5.95;5.28;;;27.90;51.70;;;;;;5018807;28;20030;-48
2023/06/17 07:09:57;;;;;;;7.85;5.82;;;27.80;51.50;;;;;;5017936;28;20130;-50
2023/06/17 07:12:22;;;;;;;10.38;6.43;;;27.80;51.80;;;;;;5017592;28;20022;-51
2023/06/17 07:14:48;;;;;;;5.80;5.10;;;27.70;51.60;;;;;;5017957;28;20054;-50
2023/06/17 07:17:14;;;;;;;7.88;5.63;;;27.70;51.60;;;;;;5017088;28;20405;-49
2023/06/17 07:19:39;;;;;;;8.73;5.40;;;27.70;51.60;;;;;;5017737;28;20018;-48
2023/06/17 07:22:07;;;;;;;6.03;5.18;;;27.70;51.90;;;;;;5017365;28;20036;-50
2023/06/17 07:24:32;;;;;;;6.43;5.53;;;27.70;51.80;;;;;;5017154;28;20090;-51
2023/06/17 07:26:58;;;;;;;6.45;5.22;;;27.70;51.80;;;;;;5017819;28;20054;-47
2023/06/17 07:29:25;;;;;;;8.00;5.53;;;27.80;51.80;;;;;;5017038;28;20053;-51
2023/06/17 07:31:50;;;;;;;6.85;5.70;;;27.80;52.10;;;;;;5016750;28;20026;-50
2023/06/17 07:34:16;;;;;;;5.88;5.00;;;27.80;51.90;;;;;;5014916;28;20033;-51
2023/06/17 07:36:42;;;;;;;8.50;4.93;;;27.80;51.90;;;;;;5015601;28;20073;-50
2023/06/17 07:39:07;;;;;;;8.18;5.00;;;27.80;51.40;;;;;;5016191;28;20029;-49
2023/06/17 07:41:33;;;;;;;7.10;5.03;;;27.70;51.10;;;;;;5015956;28;20472;-49
2023/06/17 07:43:58;;;;;;;6.82;4.75;;;27.70;51.20;;;;;;5016571;28;20018;-52
2023/06/17 07:46:25;;;;;;;7.55;5.38;;;27.70;51.20;;;;;;5016094;28;20033;-48
2023/06/17 07:48:51;;;;;;;7.03;4.93;;;27.70;51.30;;;;;;5016774;28;20088;-51
2023/06/17 07:51:16;;;;;;;6.03;4.88;;;27.70;51.20;;;;;;5016502;28;20025;-52
2023/06/17 07:53:42;;;;;;;6.25;4.60;;;27.70;51.20;;;;;;5016824;28;20030;-52
2023/06/17 07:56:07;;;;;;;8.07;4.90;;;27.70;51.10;;;;;;5016569;28;20057;-48
2023/06/17 07:58:33;;;;;;;7.53;5.28;;;27.70;50.90;;;;;;5017072;28;20026;-49
2023/06/17 08:00:59;;;;;;;5.53;4.70;;;27.60;50.80;;;;;;5017267;28;20057;-50
2023/06/17 08:03:24;;;;;;;5.75;4.75;;;27.60;50.80;;;;;;5016071;28;20026;-49
2023/06/17 08:05:50;;;;;;;6.15;4.85;;;27.60;51.10;;;;;;5017294;28;20076;-48
2023/06/17 08:08:16;;;;;;;6.70;4.60;;;27.70;51.30;;;;;;5016993;28;20026;-48
2023/06/17 08:10:41;;;;;;;7.15;4.75;;;27.70;50.90;;;;;;5017289;28;20052;-48
2023/06/17 08:13:07;;;;;;;6.22;4.93;;;27.60;50.90;;;;;;5016924;28;20022;-48
2023/06/17 08:15:32;;;;;;;6.10;4.65;;;27.60;51.00;;;;;;5017099;28;20038;-48
2023/06/17 08:17:58;;;;;;;7.22;4.63;;;27.60;51.00;;;;;;5016909;28;20037;-50
2023/06/17 08:20:24;;;;;;;5.53;4.70;;;27.60;50.90;;;;;;5016764;28;20022;-50
2023/06/17 08:22:50;;;;;;;6.78;4.65;;;27.60;50.60;;;;;;5015398;28;20045;-47
2023/06/17 08:25:15;;;;;;;6.20;4.50;;;27.60;50.30;;;;;;5014322;28;20490;-50
2023/06/17 08:27:47;;;;;;;6.72;5.15;;;27.60;49.90;;;;;;5014528;28;20047;-49
2023/06/17 08:30:13;;;;;;;9.63;4.90;;;27.60;50.10;;;;;;5017037;28;20037;-52
2023/06/17 08:32:39;;;;;;;7.13;4.68;;;27.70;50.20;;;;;;5017217;28;20030;-48
2023/06/17 08:35:06;;;;;;;7.25;4.50;;;27.70;49.90;;;;;;5016535;28;20026;-50
2023/06/17 08:37:33;;;;;;;4.90;4.18;;;27.70;49.80;;;;;;5014488;28;20083;-51
2023/06/17 08:39:59;;;;;;;5.65;4.70;;;27.70;49.40;;;;;;5017219;28;20034;-49
2023/06/17 08:42:27;;;;;;;6.70;4.45;;;27.70;49.20;;;;;;5017262;28;20026;-51
2023/06/17 08:44:54;;;;;;;7.47;4.55;;;27.80;49.30;;;;;;5016974;28;20033;-50
2023/06/17 08:47:21;;;;;;;5.93;5.05;;;27.80;49.20;;;;;;5016611;28;20084;-51
2023/06/17 08:49:46;;;;;;;6.60;4.53;;;27.80;49.20;;;;;;5017279;28;20057;-50
2023/06/17 08:52:14;;;;;;;7.03;4.82;;;27.90;49.20;;;;;;5016441;28;20034;-51
2023/06/17 08:54:40;;;;;;;8.27;4.60;;;27.90;49.50;;;;;;5016871;28;20065;-48
2023/06/17 08:57:13;;;;;;;5.53;5.03;;;27.90;49.50;;;;;;5016654;28;20481;-49
2023/06/17 08:59:40;;;;;;;5.97;4.75;;;27.90;49.60;;;;;;5016010;28;20022;-50
2023/06/17 09:02:07;;;;;;;5.75;4.60;;;27.90;49.80;;;;;;5016785;28;20029;-51
2023/06/17 09:04:35;;;;;;;8.40;5.00;;;27.90;50.20;;;;;;5016844;28;20022;-50
2023/06/17 09:07:00;;;;;;;7.13;5.15;;;27.90;49.70;;;;;;5016942;28;20033;-50
2023/06/17 09:09:26;;;;;;;8.48;5.03;;;28.00;49.50;;;;;;5017016;28;20032;-51
2023/06/17 09:11:53;;;;;;;5.40;4.70;;;28.00;49.50;;;;;;5016720;28;20029;-50
2023/06/17 09:14:21;;;;;;;6.78;4.75;;;28.00;49.30;;;;;;5018060;28;20058;-51
2023/06/17 09:16:49;;;;;;;6.63;4.78;;;28.00;49.20;;;;;;5020507;28;20026;-50
2023/06/17 09:19:15;;;;;;;5.15;4.57;;;28.00;49.10;;;;;;5020337;28;20049;-50
2023/06/17 09:21:41;;;;;;;7.55;4.88;;;28.00;48.80;;;;;;5020282;28;20026;-51
2023/06/17 09:24:11;;;;;;;5.53;4.75;;;28.00;48.40;;;;;;5020374;28;20018;-48
2023/06/17 09:26:41;;;;;;;5.88;5.28;;;28.00;48.20;;;;;;5020445;28;20030;-49
2023/06/17 09:29:08;;;;;;;;;;;28.00;48.10;;;;;;5020319;28;20121;-50
2023/06/17 09:31:46;;;;;;;6.47;5.03;;;27.90;48.40;;;;;;5020170;28;19945;-49
2023/06/17 09:34:12;;;;;;;6.45;5.03;;;27.90;48.30;;;;;;5020210;28;20030;-50
2023/06/17 09:36:40;;;;;;;7.47;5.32;;;27.80;48.40;;;;;;5019875;28;20030;-49
2023/06/17 09:39:08;;;;;;;5.40;4.53;;;27.80;48.80;;;;;;5020297;28;20608;-51
2023/06/17 09:41:41;;;;;;;7.32;4.75;;;27.80;48.90;;;;;;5019857;28;20386;-50
2023/06/17 09:44:07;;;;;;;8.15;5.28;;;27.80;48.80;;;;;;5019925;28;20033;-50
2023/06/17 09:46:39;;;;;;;6.45;4.60;;;27.70;48.90;;;;;;5019910;28;20022;-49
2023/06/17 09:49:15;;;;;;;5.47;4.75;;;27.70;48.70;;;;;;5020039;28;20080;-47
2023/06/17 09:51:41;;;;;;;7.70;4.57;;;27.60;48.60;;;;;;5019552;28;20026;-49
2023/06/17 09:54:08;;;;;;;5.30;4.50;;;27.60;49.00;;;;;;5018799;28;20026;-50
2023/06/17 09:56:35;;;;;;;6.88;4.75;;;27.60;48.70;;;;;;5019419;28;20033;-52
2023/06/17 09:59:11;;;;;;;6.30;4.82;;;27.50;48.30;;;;;;5019288;28;20076;-51
2023/06/17 10:01:39;;;;;;;7.35;5.13;;;27.50;48.30;;;;;;5018870;28;20022;-50
2023/06/17 10:04:06;;;;;;;7.13;4.97;;;27.50;48.30;;;;;;5019426;28;20042;-48
2023/06/17 10:06:35;;;;;;;5.10;4.55;;;27.50;48.30;;;;;;5019261;28;20034;-49
2023/06/17 10:09:05;;;;;;;7.07;4.93;;;27.50;48.20;;;;;;5019685;28;20029;-50
2023/06/17 10:11:31;;;;;;;;;;;27.50;48.30;;;;;;5019746;28;20440;-50
2023/06/17 10:14:02;;;;;;;7.65;4.38;;;27.60;48.40;;;;;;5019072;28;19925;-49
2023/06/17 10:16:34;;;;;;;7.72;4.57;;;27.50;48.30;;;;;;5019110;28;20483;-50
2023/06/17 10:19:03;;;;;;;9.77;5.00;;;27.50;48.30;;;;;;5019389;28;20038;-51
2023/06/17 10:21:30;;;;;;;6.38;4.72;;;27.50;48.20;;;;;;5018836;28;20049;-50
2023/06/17 10:23:58;;;;;;;6.00;4.85;;;27.60;48.20;;;;;;5018885;28;20024;-51
2023/06/17 10:26:24;;;;;;;5.97;4.80;;;27.60;48.20;;;;;;5017931;28;20058;-47
2023/06/17 10:28:53;;;;;;;6.38;4.65;;;27.60;48.20;;;;;;5019078;28;20079;-47
2023/06/17 10:31:24;;;;;;;5.57;4.90;;;27.60;48.00;;;;;;5018507;28;20060;-50
2023/06/17 10:33:51;;;;;;;6.20;4.72;;;27.50;47.90;;;;;;5018891;28;20026;-51
2023/06/17 10:36:21;;;;;;;7.03;4.85;;;27.50;48.40;;;;;;5018241;28;20025;-51
2023/06/17 10:39:04;;;;;;;6.57;4.80;;;27.50;47.70;;;;;;5018109;28;20024;-52
2023/06/17 10:41:42;;;;;;;5.78;4.70;;;27.50;47.90;;;;;;5019002;28;20524;-51
2023/06/17 10:44:30;;;;;;;6.78;4.70;;;27.50;47.70;;;;;;5018826;28;20025;-50
2023/06/17 10:46:56;;;;;;;6.03;4.80;;;27.50;47.60;;;;;;5018722;28;20079;-48
2023/06/17 10:49:23;;;;;;;6.57;4.57;;;27.50;47.80;;;;;;5018779;28;20045;-51
2023/06/17 10:51:50;;;;;;;5.05;4.55;;;27.40;47.90;;;;;;5018668;28;20541;-48
2023/06/17 10:54:25;;;;;;;6.82;4.57;;;27.40;48.10;;;;;;5019195;28;20111;-47
2023/06/17 10:56:51;;;;;;;7.47;4.60;;;27.40;48.20;;;;;;5018586;28;20049;-48
2023/06/17 10:59:25;;;;;;;5.40;4.60;;;27.40;48.20;;;;;;5018992;28;20084;-48
2023/06/17 11:01:52;;;;;;;6.00;4.95;;;27.40;48.40;;;;;;5018789;28;20033;-50
2023/06/17 11:04:18;;;;;;;5.72;4.55;;;27.40;48.50;;;;;;5018629;28;20474;-49
2023/06/17 11:06:47;;;;;;;6.90;4.38;;;27.40;48.30;;;;;;5018509;28;20029;-50
2023/06/17 11:09:13;;;;;;;5.05;4.28;;;27.40;48.30;;;;;;5018662;28;20420;-50
2023/06/17 11:11:39;;;;;;;5.07;4.40;;;27.30;48.20;;;;;;5018671;28;20036;-49
2023/06/17 11:14:04;;;;;;;5.05;4.45;;;27.30;47.90;;;;;;5017954;28;20172;-48
2023/06/17 11:16:32;;;;;;;5.80;4.47;;;27.30;47.80;;;;;;5017605;28;20030;-51
2023/06/17 11:18:59;;;;;;;7.50;4.70;;;27.30;47.60;;;;;;5018140;28;20022;-49
2023/06/17 11:21:24;;;;;;;4.90;4.40;;;27.30;47.80;;;;;;5018673;28;20061;-48
2023/06/17 11:23:52;;;;;;;5.60;4.65;;;27.30;47.70;;;;;;5017193;28;20076;-50
2023/06/17 11:26:18;;;;;;;5.55;4.47;;;27.30;47.90;;;;;;5018892;28;20037;-49
2023/06/17 11:28:44;;;;;;;6.22;4.60;;;27.40;47.90;;;;;;5018561;28;20026;-48
2023/06/17 11:31:10;;;;;;;5.53;4.90;;;27.40;48.10;;;;;;5018691;28;20036;-50
2023/06/17 11:33:36;;;;;;;5.65;4.63;;;27.50;48.40;;;;;;5017959;28;20077;-52
2023/06/17 11:36:03;;;;;;;5.25;4.47;;;27.50;48.30;;;;;;5018275;28;20069;-48
2023/06/17 11:38:30;;;;;;;6.22;4.38;;;27.40;47.70;;;;;;5018330;28;20076;-50
2023/06/17 11:40:57;;;;;;;6.05;4.57;;;27.40;47.80;;;;;;5018235;28;20482;-47
2023/06/17 11:43:26;;;;;;;6.15;4.45;;;27.40;47.80;;;;;;5018053;28;20050;-52
2023/06/17 11:45:58;;;;;;;5.00;4.50;;;27.40;47.80;;;;;;5018202;28;20022;-49
2023/06/17 11:48:34;;;;;;;5.93;4.45;;;27.40;47.70;;;;;;5017963;28;20100;-51
2023/06/17 11:51:00;;;;;;;7.03;4.63;;;27.40;47.90;;;;;;5018108;28;20026;-49
2023/06/17 11:53:36;;;;;;;6.10;5.38;;;27.40;48.00;;;;;;5017748;28;20057;-46
2023/06/17 11:56:05;;;;;;;5.68;5.07;;;27.40;48.10;;;;;;5017759;28;20026;-49
2023/06/17 11:58:32;;;;;;;5.20;4.43;;;27.50;47.90;;;;;;5017293;28;20041;-51
2023/06/17 12:01:00;;;;;;;4.53;4.05;;;27.50;47.80;;;;;;5016445;28;20028;-49
2023/06/17 12:03:27;;;;;;;5.50;4.78;;;27.40;47.80;;;;;;5016587;28;20056;-51
2023/06/17 12:05:53;;;;;;;6.47;4.75;;;27.50;48.00;;;;;;5017026;28;20108;-51
2023/06/17 12:08:19;;;;;;;5.75;4.40;;;27.40;47.80;;;;;;5016283;28;20064;-49
2023/06/17 12:10:44;;;;;;;5.68;4.20;;;27.40;47.80;;;;;;5016188;28;20030;-51
2023/06/17 12:13:13;;;;;;;6.70;4.43;;;27.40;48.20;;;;;;5016314;28;20056;-49
2023/06/17 12:15:39;;;;;;;5.80;4.50;;;27.40;48.30;;;;;;5016385;28;20018;-49
2023/06/17 12:18:10;;;;;;;7.28;5.13;;;27.40;48.20;;;;;;5015924;28;20036;-52
2023/06/17 12:20:36;;;;;;;5.68;4.53;;;27.40;48.00;;;;;;5015616;28;20389;-51
2023/06/17 12:23:02;;;;;;;6.28;5.18;;;27.40;48.00;;;;;;5015672;28;20464;-50
2023/06/17 12:25:32;;;;;;;5.57;4.80;;;27.50;48.20;;;;;;5015315;28;20018;-51
2023/06/17 12:27:58;;;;;;;5.68;5.07;;;27.50;48.40;;;;;;5015647;28;20037;-49
2023/06/17 12:30:24;;;;;;;5.80;4.47;;;27.50;48.60;;;;;;5015721;28;20026;-50
2023/06/17 12:32:50;;;;;;;6.80;4.38;;;27.50;48.60;;;;;;5015459;28;20124;-51
2023/06/17 12:35:17;;;;;;;6.53;4.57;;;27.50;48.70;;;;;;5016480;28;20025;-50
2023/06/17 12:37:45;;;;;;;5.85;4.55;;;27.40;48.70;;;;;;5014082;28;20036;-50
2023/06/17 12:40:11;;;;;;;5.85;4.63;;;27.40;48.80;;;;;;5016714;28;20108;-51
2023/06/17 12:42:37;;;;;;;5.60;4.55;;;27.40;48.70;;;;;;5016397;28;20049;-48
2023/06/17 12:45:04;;;;;;;5.40;4.50;;;27.40;48.60;;;;;;5017242;28;20084;-50
2023/06/17 12:47:30;;;;;;;5.85;4.80;;;27.40;48.40;;;;;;5017269;28;20022;-51